Time;durP1;ratioP1;P1;durP2;ratioP2;P2;SDS_P1;SDS_P2;PMS_P1;PMS_P2;Temp;Humidity;BMP_temperature;BMP_pressure;BME280_temperature;BME280_humidity;BME280_pressure;Samples;Min_cycle;Max_cycle;Signal;HPM_P1;HPM_P2
2023/10/18 00:00:04;;;;;;;10.33;9.53;;;;;;;5.11;84.10;100923.00;5052876;28;20209;-85
2023/10/18 00:02:32;;;;;;;16.27;14.70;;;;;;;5.08;84.56;100930.75;5053068;28;20240;-84
2023/10/18 00:04:59;;;;;;;24.40;19.33;;;;;;;5.08;85.11;100923.84;5052867;28;20208;-85
2023/10/18 00:07:27;;;;;;;29.33;21.67;;;;;;;5.03;85.76;100911.69;5053057;28;20264;-83
2023/10/18 00:09:55;;;;;;;27.40;21.27;;;;;;;4.95;85.73;100904.69;5052945;28;20205;-84
2023/10/18 00:12:22;;;;;;;23.40;18.87;;;;;;;4.88;86.22;100902.06;5051310;28;20265;-82
2023/10/18 00:14:52;;;;;;;20.40;18.33;;;;;;;4.87;86.41;100896.00;5032342;28;20209;-85
2023/10/18 00:17:18;;;;;;;18.43;16.60;;;;;;;4.89;86.02;100896.00;5033045;28;20240;-83
2023/10/18 00:19:46;;;;;;;17.60;15.27;;;;;;;4.95;85.44;100893.50;5032730;28;20221;-84
2023/10/18 00:22:13;;;;;;;14.30;12.93;;;;;;;4.96;85.25;100903.88;5033177;28;20224;-86
2023/10/18 00:24:39;;;;;;;12.73;11.60;;;;;;;4.89;84.54;100920.16;5033103;28;20212;-85
2023/10/18 00:27:09;;;;;;;13.57;12.13;;;;;;;4.83;87.17;100893.34;5031597;28;20237;-85
2023/10/18 00:29:35;;;;;;;11.60;10.77;;;;;;;4.90;87.44;100854.66;5044960;28;20204;-83
2023/10/18 00:32:03;;;;;;;11.97;11.07;;;;;;;4.84;87.24;100864.94;5052274;28;20208;-85
2023/10/18 00:34:29;;;;;;;11.20;10.40;;;;;;;4.83;87.01;100857.16;5053265;28;20210;-86
2023/10/18 00:36:58;;;;;;;12.33;11.20;;;;;;;4.71;86.92;100855.28;5051921;28;20232;-84
2023/10/18 00:39:27;;;;;;;11.80;10.90;;;;;;;4.81;86.07;100862.28;5052476;28;20209;-86
2023/10/18 00:41:54;;;;;;;11.60;10.70;;;;;;;4.70;85.26;100876.84;5046329;28;20217;-85
2023/10/18 00:44:22;;;;;;;11.10;10.30;;;;;;;4.72;85.00;100882.91;5033039;28;20226;-86
2023/10/18 00:46:49;;;;;;;11.87;10.93;;;;;;;4.63;85.39;100888.81;5032936;28;20339;-85
2023/10/18 00:49:16;;;;;;;12.27;11.23;;;;;;;4.63;85.24;100881.03;5032414;28;20210;-84
2023/10/18 00:51:44;;;;;;;11.90;10.90;;;;;;;4.56;84.76;100885.28;5031928;28;20273;-85
2023/10/18 00:54:13;;;;;;;11.60;10.57;;;;;;;4.54;85.32;100886.97;5032437;28;20293;-84
2023/10/18 00:56:40;;;;;;;11.73;10.73;;;;;;;4.49;85.99;100873.13;5032328;28;20236;-85
2023/10/18 00:59:18;;;;;;;12.77;11.67;;;;;;;4.45;86.30;100861.00;5032437;28;20219;-83
2023/10/18 01:01:46;;;;;;;12.90;10.80;;;;;;;4.38;87.52;100834.22;5030992;28;20204;-85
2023/10/18 01:04:13;;;;;;;11.20;10.30;;;;;;;4.40;88.10;100805.81;5033144;28;20199;-83
2023/10/18 01:06:43;;;;;;;10.97;10.07;;;;;;;4.46;88.03;100800.72;5031674;28;20230;-84
2023/10/18 01:09:15;;;;;;;10.47;9.67;;;;;;;4.37;87.86;100798.88;5033356;28;20217;-85
2023/10/18 01:11:45;;;;;;;10.97;10.17;;;;;;;4.32;88.41;100774.72;5032993;28;20203;-85
2023/10/18 01:14:16;;;;;;;10.00;9.20;;;;;;;4.23;88.20;100774.59;5033168;28;20224;-85
2023/10/18 01:16:44;;;;;;;11.40;10.43;;;;;;;4.15;87.35;100777.06;5034047;28;20236;-84
2023/10/18 01:19:14;;;;;;;11.60;10.43;;;;;;;4.14;87.19;100779.63;5031676;28;20209;-85
2023/10/18 01:21:44;;;;;;;10.60;9.80;;;;;;;4.19;86.92;100785.72;5033105;28;20227;-85
2023/10/18 01:24:14;;;;;;;11.70;10.80;;;;;;;4.18;86.92;100782.28;5033402;28;20197;-86
2023/10/18 01:26:42;;;;;;;11.80;10.80;;;;;;;4.15;87.26;100787.41;5045143;28;20240;-84
2023/10/18 01:29:09;;;;;;;10.77;9.90;;;;;;;4.14;86.82;100796.03;5041886;28;20206;-84
2023/10/18 01:31:36;;;;;;;12.27;11.23;;;;;;;4.21;86.78;100803.84;5042306;28;20216;-85
2023/10/18 01:34:10;;;;;;;12.50;11.60;;;;;;;4.34;87.14;100796.28;5043682;28;20224;-84
2023/10/18 01:36:39;;;;;;;10.17;9.47;;;;;;;4.33;86.83;100799.69;5040766;28;20225;-85
2023/10/18 01:39:15;;;;;;;9.50;8.80;;;;;;;4.39;85.58;100824.75;5040874;28;20211;-85
2023/10/18 01:41:43;;;;;;;9.33;8.63;;;;;;;4.45;84.41;100844.63;5042482;28;20204;-84
2023/10/18 01:44:10;;;;;;;8.30;7.80;;;;;;;4.23;84.30;100857.28;5043399;28;20188;-83
2023/10/18 01:46:44;;;;;;;8.90;8.20;;;;;;;4.20;84.28;100864.09;5036674;28;20227;-85
2023/10/18 01:49:13;;;;;;;8.50;7.90;;;;;;;4.21;84.38;100863.28;5031635;28;20193;-84
2023/10/18 01:51:42;;;;;;;9.00;8.30;;;;;;;4.23;83.49;100879.66;5031121;28;20245;-83
2023/10/18 01:54:12;;;;;;;9.00;8.17;;;;;;;4.26;83.92;100875.41;5032195;28;20253;-85
2023/10/18 01:56:41;;;;;;;8.47;7.87;;;;;;;4.21;84.48;100871.88;5030649;28;20217;-83
2023/10/18 01:59:17;;;;;;;8.87;8.17;;;;;;;4.01;85.58;100852.66;5030683;28;20227;-84
2023/10/18 02:01:45;;;;;;;9.63;8.93;;;;;;;3.95;86.60;100825.88;5030901;28;20202;-84
2023/10/18 02:04:23;;;;;;;8.43;7.83;;;;;;;4.01;86.82;100804.44;5030848;28;20190;-83
2023/10/18 02:06:50;;;;;;;8.97;8.27;;;;;;;3.95;87.40;100791.44;5031364;28;20226;-84
2023/10/18 02:09:17;;;;;;;10.87;9.93;;;;;;;4.00;88.00;100769.13;5030992;28;20199;-85
2023/10/18 02:11:43;;;;;;;10.23;9.30;;;;;;;4.02;88.10;100758.81;5033217;28;20218;-85
2023/10/18 02:14:13;;;;;;;11.97;10.77;;;;;;;4.02;88.83;100740.72;5039060;28;20240;-84
2023/10/18 02:16:40;;;;;;;12.00;10.90;;;;;;;4.10;88.73;100731.34;5052369;28;20231;-84
2023/10/18 02:19:08;;;;;;;12.63;11.63;;;;;;;4.03;89.76;100712.34;5052222;28;20211;-85
2023/10/18 02:21:35;;;;;;;11.87;10.77;;;;;;;4.14;89.66;100695.28;5051736;28;20201;-85
2023/10/18 02:24:01;;;;;;;12.53;11.33;;;;;;;4.17;89.92;100684.09;5051828;28;20209;-84
2023/10/18 02:26:34;;;;;;;11.30;10.30;;;;;;;4.21;90.51;100659.16;5051321;28;20216;-85
2023/10/18 02:29:05;;;;;;;11.90;10.80;;;;;;;4.28;89.79;100659.25;5052060;28;20212;-86
2023/10/18 02:31:34;;;;;;;10.70;9.80;;;;;;;4.26;90.36;100658.38;5052236;28;20247;-85
2023/10/18 02:34:03;;;;;;;12.87;11.23;;;;;;;4.26;91.12;100644.56;5052512;28;20236;-85
2023/10/18 02:36:38;;;;;;;13.17;12.10;;;;;;;4.32;91.30;100630.00;5051211;28;20208;-84
2023/10/18 02:39:05;;;;;;;13.07;11.90;;;;;;;4.32;91.08;100631.69;5051326;28;20262;-84
2023/10/18 02:41:34;;;;;;;12.57;11.43;;;;;;;4.34;90.95;100617.97;5049402;28;20315;-85
2023/10/18 02:44:01;;;;;;;12.20;11.10;;;;;;;4.33;90.41;100626.53;5031243;28;20204;-85
2023/10/18 02:46:27;;;;;;;11.97;10.87;;;;;;;4.26;89.78;100648.03;5030942;28;20216;-84
2023/10/18 02:48:57;;;;;;;15.00;11.27;;;;;;;4.22;90.21;100641.06;5031781;28;20221;-84
2023/10/18 02:51:24;;;;;;;11.03;10.13;;;;;;;4.18;90.83;100628.97;5031735;28;20212;-84
2023/10/18 02:53:52;;;;;;;17.27;10.83;;;;;;;4.12;90.39;100624.63;5031865;28;20238;-85
2023/10/18 02:56:26;;;;;;;21.13;12.67;;;;;;;4.24;91.05;100605.81;5032006;28;20389;-85
2023/10/18 02:58:53;;;;;;;12.63;11.63;;;;;;;4.22;92.00;100594.56;5032518;28;20209;-85
2023/10/18 03:01:20;;;;;;;12.30;11.30;;;;;;;4.18;92.02;100600.56;5031535;28;20251;-85
2023/10/18 03:03:49;;;;;;;12.93;11.80;;;;;;;4.18;91.16;100604.03;5031677;28;20294;-84
2023/10/18 03:06:17;;;;;;;12.23;11.13;;;;;;;4.26;91.06;100604.09;5031510;28;20214;-85
2023/10/18 03:08:47;;;;;;;11.57;10.67;;;;;;;4.18;90.59;100609.19;5031789;28;20206;-86
2023/10/18 03:11:13;;;;;;;11.37;10.43;;;;;;;4.31;88.86;100623.09;5031975;28;20223;-84
2023/10/18 03:13:42;;;;;;;12.07;11.07;;;;;;;4.26;87.89;100652.31;5031608;28;20227;-85
2023/10/18 03:16:18;;;;;;;12.33;11.23;;;;;;;4.16;87.99;100656.50;5032094;28;20269;-83
2023/10/18 03:18:45;;;;;;;12.13;11.13;;;;;;;4.02;88.44;100666.69;5030686;28;20217;-84
2023/10/18 03:21:20;;;;;;;11.00;10.17;;;;;;;4.05;88.76;100656.41;5030817;28;20207;-85
2023/10/18 03:23:50;;;;;;;13.40;10.87;;;;;;;4.05;88.26;100660.72;5030539;28;20207;-85
2023/10/18 03:26:21;;;;;;;12.57;11.47;;;;;;;4.03;89.10;100665.00;5031066;28;20257;-83
2023/10/18 03:28:48;;;;;;;12.70;11.60;;;;;;;3.98;88.90;100657.16;5030749;28;20242;-85
2023/10/18 03:31:27;;;;;;;13.57;10.40;;;;;;;3.88;90.49;100635.53;5031322;28;20207;-85
2023/10/18 03:33:59;;;;;;;12.27;11.17;;;;;;;3.85;90.36;100619.16;5031170;28;20280;-84
2023/10/18 03:36:26;;;;;;;12.73;11.63;;;;;;;3.82;89.68;100625.16;5031554;28;20212;-84
2023/10/18 03:39:00;;;;;;;11.63;10.53;;;;;;;3.86;89.99;100607.97;5031616;28;20272;-85
2023/10/18 03:41:33;;;;;;;12.70;11.70;;;;;;;3.97;90.09;100615.00;5033763;28;20216;-84
2023/10/18 03:44:03;;;;;;;13.63;12.27;;;;;;;3.68;90.96;100617.25;5031624;28;20198;-84
2023/10/18 03:46:38;;;;;;;15.27;11.73;;;;;;;3.47;93.20;100567.94;5031040;28;20243;-83
2023/10/18 03:49:08;;;;;;;12.17;11.17;;;;;;;3.31;93.82;100533.34;5031182;28;20222;-85
2023/10/18 03:51:36;;;;;;;11.07;10.17;;;;;;;3.30;94.27;100514.44;5030958;28;20203;-84
2023/10/18 03:54:05;;;;;;;12.77;11.80;;;;;;;3.33;93.31;100522.22;5031238;28;20232;-85
2023/10/18 03:56:36;;;;;;;11.83;10.90;;;;;;;3.24;93.38;100516.94;5030892;28;20209;-85
2023/10/18 03:59:10;;;;;;;11.60;10.70;;;;;;;3.22;93.89;100503.16;5032950;28;20212;-84
2023/10/18 04:01:41;;;;;;;11.27;10.37;;;;;;;3.26;93.41;100497.19;5031744;28;20231;-86
2023/10/18 04:04:17;;;;;;;12.83;11.70;;;;;;;3.31;93.40;100508.44;5032236;28;20207;-85
2023/10/18 04:06:44;;;;;;;13.77;11.83;;;;;;;3.27;93.62;100504.09;5031834;28;20226;-85
2023/10/18 04:09:16;;;;;;;12.70;11.70;;;;;;;3.26;94.08;100494.59;5031487;28;20211;-86
2023/10/18 04:11:43;;;;;;;12.03;10.93;;;;;;;3.29;93.67;100494.66;5033133;28;20214;-85
2023/10/18 04:14:10;;;;;;;10.23;9.43;;;;;;;3.41;92.17;100506.81;5030892;28;20253;-86
2023/10/18 04:16:38;;;;;;;8.93;8.23;;;;;;;3.42;91.18;100528.31;5031341;28;20259;-86
2023/10/18 04:19:07;;;;;;;9.37;8.67;;;;;;;3.65;89.90;100550.09;5031347;28;20201;-86
2023/10/18 04:21:34;;;;;;;9.30;8.50;;;;;;;3.74;88.68;100577.72;5032363;28;20203;-86
2023/10/18 04:24:04;;;;;;;8.67;8.07;;;;;;;3.76;87.73;100615.59;5031003;28;20214;-86
2023/10/18 04:26:31;;;;;;;8.83;8.20;;;;;;;3.76;86.93;100636.25;5031455;28;20212;-84
2023/10/18 04:29:01;;;;;;;8.97;8.27;;;;;;;3.74;86.20;100650.88;5031734;28;20207;-86
2023/10/18 04:31:29;;;;;;;7.80;7.27;;;;;;;3.50;86.82;100664.31;5031927;28;20687;-84
2023/10/18 04:33:57;;;;;;;8.53;7.93;;;;;;;3.23;87.41;100663.94;5031726;28;20209;-87
2023/10/18 04:36:23;;;;;;;9.03;8.30;;;;;;;3.12;88.00;100650.91;5034859;28;20278;-85
2023/10/18 04:38:51;;;;;;;8.60;7.90;;;;;;;3.05;88.44;100643.91;5034539;28;20216;-86
2023/10/18 04:41:27;;;;;;;8.83;8.13;;;;;;;2.96;88.64;100636.91;5036434;28;20210;-84
2023/10/18 04:44:04;;;;;;;9.07;8.37;;;;;;;3.01;89.17;100624.06;5051294;28;20204;-86
2023/10/18 04:46:31;;;;;;;9.00;8.30;;;;;;;3.05;88.93;100608.66;5033511;28;20240;-86
2023/10/18 04:51:45;;;;;;;9.20;8.50;;;;;;;3.13;89.76;100601.03;5035202;28;20255;-84
2023/10/18 04:54:15;;;;;;;9.13;8.43;;;;;;;3.05;90.53;100582.88;5035598;28;20212;-85
2023/10/18 04:56:43;;;;;;;10.00;9.20;;;;;;;2.95;90.97;100571.59;5039568;28;20224;-84
2023/10/18 04:59:26;;;;;;;9.70;8.80;;;;;;;3.03;90.93;100561.34;5035274;28;20281;-84
2023/10/18 05:01:57;;;;;;;10.43;9.63;;;;;;;3.00;91.50;100558.75;5038684;28;20200;-82
2023/10/18 05:04:24;;;;;;;10.87;10.07;;;;;;;3.05;91.59;100544.19;5040282;28;20218;-82
2023/10/18 05:06:54;;;;;;;10.83;9.83;;;;;;;3.05;92.44;100526.13;5038614;28;20224;-83
2023/10/18 05:09:29;;;;;;;9.37;8.67;;;;;;;3.14;91.86;100504.78;5038763;28;20212;-83
2023/10/18 05:11:57;;;;;;;17.33;10.03;;;;;;;3.13;91.34;100516.81;5042620;28;20183;-83
2023/10/18 05:14:40;;;;;;;35.23;10.87;;;;;;;3.06;91.53;100504.69;5038916;28;20232;-83
2023/10/18 05:17:10;;;;;;;16.50;9.47;;;;;;;3.09;93.00;100483.22;5038280;28;20232;-83
2023/10/18 05:19:41;;;;;;;14.40;11.03;;;;;;;3.10;93.54;100459.16;5034758;28;20657;-83
2023/10/18 05:22:08;;;;;;;12.10;10.87;;;;;;;3.10;94.04;100444.56;5032913;28;20195;-85
2023/10/18 05:24:37;;;;;;;15.03;11.17;;;;;;;3.08;94.93;100423.03;5032497;28;20208;-85
2023/10/18 05:27:05;;;;;;;12.50;11.03;;;;;;;3.02;95.56;100406.66;5032048;28;20254;-83
2023/10/18 05:29:43;;;;;;;11.27;10.37;;;;;;;3.01;96.49;100381.69;5031995;28;20240;-85
2023/10/18 05:32:09;;;;;;;11.30;10.40;;;;;;;2.96;96.45;100374.78;5032906;28;20211;-84
2023/10/18 05:34:50;;;;;;;12.90;11.90;;;;;;;2.97;96.22;100370.47;5032206;28;20228;-85
2023/10/18 05:37:19;;;;;;;12.10;10.97;;;;;;;2.88;97.35;100362.66;5031759;28;20229;-84
2023/10/18 05:40:42;;;;;;;10.80;10.00;;;;;;;2.94;98.11;100340.38;5032236;28;20220;-84
2023/10/18 05:42:46;;;;;;;11.37;10.47;;;;;;;3.01;98.41;100338.72;5031479;28;20239;-86
2023/10/18 05:45:13;;;;;;;12.00;11.07;;;;;;;3.05;98.28;100332.75;5031327;28;20205;-86
2023/10/18 05:47:42;;;;;;;12.90;11.53;;;;;;;3.08;98.75;100319.91;5030995;28;20243;-86
2023/10/18 05:50:12;;;;;;;13.70;12.60;;;;;;;3.12;98.71;100318.22;5031426;28;20218;-86
2023/10/18 05:52:39;;;;;;;14.67;13.30;;;;;;;3.09;99.25;100316.47;5031824;28;20675;-86
2023/10/18 05:55:09;;;;;;;15.30;14.00;;;;;;;3.11;99.80;100307.03;5032449;28;20230;-84
2023/10/18 05:57:35;;;;;;;14.60;13.40;;;;;;;3.11;100.00;100289.00;5047985;28;20223;-84
2023/10/18 06:00:15;;;;;;;14.30;13.07;;;;;;;3.11;100.00;100283.84;5051774;28;20207;-84
2023/10/18 06:02:43;;;;;;;14.80;13.43;;;;;;;3.10;100.00;100282.09;5051594;28;20262;-86
2023/10/18 06:05:10;;;;;;;16.47;14.00;;;;;;;3.16;100.00;100271.81;5051465;28;20284;-85
2023/10/18 06:07:36;;;;;;;17.67;14.30;;;;;;;3.19;100.00;100265.81;5050726;28;20287;-85
2023/10/18 06:10:13;;;;;;;14.77;13.37;;;;;;;3.25;100.00;100268.47;5050200;28;20209;-83
2023/10/18 06:12:41;;;;;;;16.07;14.27;;;;;;;3.33;100.00;100266.81;5050689;28;20209;-83
2023/10/18 06:15:11;;;;;;;15.90;14.40;;;;;;;3.38;99.63;100264.25;5051485;28;20233;-85
2023/10/18 06:17:46;;;;;;;15.07;13.63;;;;;;;3.40;99.98;100264.28;5050578;28;20253;-82
2023/10/18 06:20:23;;;;;;;15.60;14.23;;;;;;;3.41;100.00;100263.41;5051180;28;20234;-84
2023/10/18 06:22:50;;;;;;;14.67;13.57;;;;;;;3.44;100.00;100255.72;5051904;28;20206;-86
2023/10/18 06:25:26;;;;;;;15.20;13.80;;;;;;;3.47;100.00;100247.97;5037993;28;20224;-84
2023/10/18 06:27:53;;;;;;;21.53;15.43;;;;;;;3.50;100.00;100229.94;5038297;28;20211;-83
2023/10/18 06:30:19;;;;;;;15.57;13.90;;;;;;;3.53;100.00;100227.41;5038713;28;20204;-81
2023/10/18 06:32:46;;;;;;;15.30;14.00;;;;;;;3.56;100.00;100225.66;5038426;28;20195;-83
2023/10/18 06:35:26;;;;;;;15.23;13.93;;;;;;;3.73;100.00;100218.03;5038839;28;20251;-81
2023/10/18 06:37:52;;;;;;;15.83;14.33;;;;;;;3.89;100.00;100231.03;5038719;28;20247;-83
2023/10/18 06:40:22;;;;;;;13.53;12.40;;;;;;;3.98;99.92;100238.81;5033717;28;20208;-87
2023/10/18 06:42:49;;;;;;;15.43;14.17;;;;;;;4.08;99.39;100239.72;5032979;28;20209;-86
2023/10/18 06:45:17;;;;;;;14.37;13.00;;;;;;;4.10;98.62;100258.66;5032073;28;20211;-85
2023/10/18 06:47:44;;;;;;;13.07;12.00;;;;;;;4.15;97.87;100273.31;5031797;28;20243;-86
2023/10/18 06:50:13;;;;;;;14.23;13.03;;;;;;;4.19;97.38;100297.47;5033048;28;20213;-85
2023/10/18 06:52:44;;;;;;;16.33;14.80;;;;;;;4.13;97.94;100290.53;5032684;28;20244;-86
2023/10/18 06:55:15;;;;;;;18.47;14.03;;;;;;;4.22;97.84;100289.72;5032863;28;20262;-85
2023/10/18 06:57:43;;;;;;;15.03;12.97;;;;;;;4.26;98.17;100291.47;5031923;28;20259;-86
2023/10/18 07:00:12;;;;;;;14.10;12.70;;;;;;;4.28;98.22;100292.34;5031407;28;20210;-84
2023/10/18 07:02:39;;;;;;;14.07;12.30;;;;;;;4.45;97.36;100294.97;5032534;28;20208;-85
2023/10/18 07:05:08;;;;;;;13.70;12.60;;;;;;;4.34;96.80;100318.22;5030932;28;20209;-86
2023/10/18 07:07:34;;;;;;;12.87;11.77;;;;;;;4.35;97.54;100324.22;5029623;28;20234;-82
2023/10/18 07:10:04;;;;;;;13.30;11.90;;;;;;;4.55;95.92;100325.16;5031519;28;20211;-85
2023/10/18 07:12:44;;;;;;;16.43;13.80;;;;;;;4.62;95.29;100332.94;5031804;28;20212;-84
2023/10/18 07:15:16;;;;;;;13.97;12.87;;;;;;;4.69;94.63;100353.66;5031364;28;20293;-86
2023/10/18 07:17:42;;;;;;;15.30;13.80;;;;;;;4.76;94.53;100365.75;5029714;28;20283;-85
2023/10/18 07:20:15;;;;;;;14.63;13.43;;;;;;;4.79;94.37;100375.25;5030553;28;20208;-83
2023/10/18 07:22:44;;;;;;;15.23;13.83;;;;;;;4.82;93.98;100369.25;5029566;28;20202;-84
2023/10/18 07:25:19;;;;;;;16.17;14.67;;;;;;;4.87;93.86;100372.69;5029691;28;20214;-84
2023/10/18 07:27:45;;;;;;;15.87;14.50;;;;;;;4.86;93.75;100366.66;5028853;28;20260;-85
2023/10/18 07:30:15;;;;;;;14.77;13.57;;;;;;;4.88;93.77;100371.84;5028456;28;20768;-84
2023/10/18 07:32:42;;;;;;;15.30;14.10;;;;;;;4.86;93.59;100377.00;5035951;28;20241;-84
2023/10/18 07:35:11;;;;;;;17.87;14.83;;;;;;;4.87;93.95;100364.91;5047381;28;20233;-86
2023/10/18 07:37:41;;;;;;;16.77;15.30;;;;;;;4.90;94.36;100358.03;5047362;28;20235;-83
2023/10/18 07:40:10;;;;;;;16.83;15.20;;;;;;;4.95;94.79;100342.53;5047926;28;20213;-83
2023/10/18 07:42:42;;;;;;;17.53;15.93;;;;;;;4.97;94.80;100349.44;5046949;28;20211;-84
2023/10/18 07:45:14;;;;;;;17.90;16.30;;;;;;;5.03;95.29;100338.22;5037077;28;20551;-81
2023/10/18 07:47:41;;;;;;;17.60;15.83;;;;;;;5.10;95.69;100327.03;5034101;28;20239;-83
2023/10/18 07:50:34;;;;;;;18.33;16.73;;;;;;;5.15;95.51;100322.75;5034515;28;20690;-83
2023/10/18 07:52:57;;;;;;;16.63;15.10;;;;;;;5.20;94.35;100327.91;5022005;28;20240;-82
2023/10/18 07:55:27;;;;;;;17.63;16.03;;;;;;;5.27;94.93;100332.25;5026835;28;20224;-83
2023/10/18 07:57:55;;;;;;;17.40;15.63;;;;;;;5.31;94.38;100331.41;5024493;28;20320;-84
2023/10/18 08:00:22;;;;;;;17.93;16.27;;;;;;;5.37;94.89;100317.56;5023415;28;20892;-82
2023/10/18 08:02:48;;;;;;;19.20;17.30;;;;;;;5.41;94.59;100316.72;5023184;28;20291;-83
2023/10/18 08:05:18;;;;;;;19.10;17.33;;;;;;;5.46;94.88;100317.56;5023850;28;20229;-82
2023/10/18 08:07:49;;;;;;;18.17;16.47;;;;;;;5.50;95.08;100319.31;5028529;28;20235;-86
2023/10/18 08:10:19;;;;;;;18.57;16.60;;;;;;;5.54;95.00;100315.00;5040801;28;20202;-85
2023/10/18 08:12:48;;;;;;;18.33;16.17;;;;;;;5.55;94.75;100317.59;5040310;28;20199;-83
2023/10/18 08:15:17;;;;;;;17.33;15.43;;;;;;;5.57;94.02;100317.59;5041007;28;20221;-89
2023/10/18 08:17:44;;;;;;;17.97;16.37;;;;;;;5.61;94.41;100315.84;5038737;28;20309;-86
2023/10/18 08:23:04;;;;;;;19.20;15.73;;;;;;;5.71;94.32;100315.84;5039324;28;20232;-88
2023/10/18 08:25:31;;;;;;;19.00;17.07;;;;;;;5.75;94.52;100301.19;5043664;28;20212;-87
2023/10/18 08:28:01;;;;;;;18.77;16.97;;;;;;;5.81;95.26;100293.38;5039746;28;20631;-87
2023/10/18 08:31:02;;;;;;;19.53;17.50;;;;;;;5.87;95.28;100280.41;5035633;28;20224;-88
2023/10/18 08:33:26;;;;;;;19.20;17.10;;;;;;;5.99;95.54;100276.97;5039872;28;20222;-86
2023/10/18 08:35:58;;;;;;;22.57;17.77;;;;;;;6.05;95.91;100276.94;5035580;28;20226;-83
2023/10/18 08:38:26;;;;;;;18.70;17.00;;;;;;;6.13;95.53;100262.22;5042912;28;20284;-85
2023/10/18 08:41:11;;;;;;;19.70;17.80;;;;;;;6.19;95.69;100256.16;5039124;28;20201;-86
2023/10/18 08:43:52;;;;;;;21.20;18.27;;;;;;;6.26;96.06;100250.06;5041001;28;20541;-87
2023/10/18 08:46:24;;;;;;;22.33;17.63;;;;;;;6.32;96.46;100242.31;5035456;28;20726;-86
2023/10/18 08:48:52;;;;;;;25.70;17.60;;;;;;;6.41;96.06;100243.97;5036406;28;20210;-87
2023/10/18 08:51:23;;;;;;;29.30;18.27;;;;;;;6.45;95.11;100248.28;5039145;28;20208;-88
2023/10/18 08:53:52;;;;;;;21.07;18.30;;;;;;;6.51;95.55;100249.97;5041850;28;20588;-84
2023/10/18 08:56:25;;;;;;;20.53;18.40;;;;;;;6.54;95.46;100248.22;5042345;28;20226;-85
2023/10/18 08:58:53;;;;;;;23.43;17.90;;;;;;;6.62;94.85;100243.00;5040646;28;20266;-87
2023/10/18 09:01:22;;;;;;;21.07;18.63;;;;;;;6.69;95.79;100243.81;5039679;28;20199;-88
2023/10/18 09:03:48;;;;;;;19.93;16.97;;;;;;;6.75;96.07;100239.44;5034588;28;20203;-88
2023/10/18 09:06:22;;;;;;;18.90;16.93;;;;;;;6.82;95.44;100231.63;5036024;28;20249;-88
2023/10/18 09:11:47;;;;;;;19.10;17.30;;;;;;;6.91;95.46;100236.75;4993137;28;20207;-85
2023/10/18 09:14:58;;;;;;;18.07;16.33;;;;;;;6.97;95.31;100234.97;5024986;28;20298;-88
2023/10/18 09:17:26;;;;;;;19.63;17.57;;;;;;;7.04;95.29;100242.72;5026368;28;20238;-82
2023/10/18 09:19:56;;;;;;;19.97;17.83;;;;;;;7.09;95.54;100238.34;5027729;28;20400;-83
2023/10/18 09:22:23;;;;;;;19.77;17.73;;;;;;;7.16;95.33;100242.63;5026449;28;20285;-83
2023/10/18 09:24:49;;;;;;;19.90;17.77;;;;;;;7.27;95.92;100234.72;4335420;28;10000701;-83
2023/10/18 09:27:22;;;;;;;21.07;18.97;;;;;;;7.34;95.58;100226.88;5027505;28;20225;-83
2023/10/18 09:29:51;;;;;;;21.33;19.10;;;;;;;7.44;96.07;100209.47;5024394;28;20273;-81
2023/10/18 09:32:32;;;;;;;20.13;18.00;;;;;;;7.53;95.54;100221.50;5022638;28;20202;-81
2023/10/18 09:35:07;;;;;;;21.03;18.87;;;;;;;7.59;94.64;100223.19;5026977;28;20218;-84
2023/10/18 09:37:35;;;;;;;18.60;16.90;;;;;;;7.63;94.54;100223.16;5024451;28;20258;-84
2023/10/18 09:40:03;;;;;;;19.00;17.27;;;;;;;7.71;94.14;100228.22;5026097;28;20282;-86
2023/10/18 09:42:30;;;;;;;20.87;18.87;;;;;;;7.78;93.57;100229.06;5029790;28;20234;-86
2023/10/18 09:44:56;;;;;;;19.80;17.23;;;;;;;7.81;93.67;100250.66;5027045;28;20199;-86
2023/10/18 09:47:28;;;;;;;19.60;17.63;;;;;;;7.89;92.85;100260.97;5029411;28;20316;-87
2023/10/18 09:49:56;;;;;;;20.47;16.93;;;;;;;7.94;92.20;100270.44;5031490;28;20664;-84
2023/10/18 09:52:30;;;;;;;18.70;17.00;;;;;;;8.00;92.26;100274.69;5023737;28;20199;-86
2023/10/18 09:55:04;;;;;;;18.80;17.03;;;;;;;8.04;91.13;100297.19;5030042;28;20230;-88
2023/10/18 09:57:35;;;;;;;18.40;16.60;;;;;;;8.09;91.22;100303.22;5029029;28;20237;-87
2023/10/18 10:00:08;;;;;;;19.03;17.20;;;;;;;8.17;91.33;100308.31;5030108;28;20633;-84
2023/10/18 10:02:37;;;;;;;18.20;16.53;;;;;;;8.24;90.89;100316.91;5023701;28;20203;-87
2023/10/18 10:05:11;;;;;;;19.03;17.10;;;;;;;8.30;90.00;100325.50;5027433;28;20999;-87
2023/10/18 10:07:46;;;;;;;17.83;16.13;;;;;;;8.38;89.24;100325.41;5030179;28;20222;-88
2023/10/18 10:10:19;;;;;;;20.07;17.87;;;;;;;8.43;88.94;100347.06;5026810;28;20316;-86
2023/10/18 10:12:46;;;;;;;18.20;16.50;;;;;;;8.45;88.96;100363.50;5027164;28;20219;-86
2023/10/18 10:15:17;;;;;;;19.53;17.10;;;;;;;8.53;88.64;100359.06;5025703;28;20227;-88
2023/10/18 10:17:56;;;;;;;18.60;16.80;;;;;;;8.58;88.91;100356.41;5032289;28;20582;-88
2023/10/18 10:20:31;;;;;;;17.37;15.77;;;;;;;8.65;88.31;100360.66;5031533;28;20216;-87
2023/10/18 10:23:02;;;;;;;17.57;15.53;;;;;;;8.72;87.66;100377.94;5031873;28;20637;-88
2023/10/18 10:25:32;;;;;;;18.53;16.93;;;;;;;8.78;87.49;100390.03;5028811;28;20229;-85
2023/10/18 10:28:13;;;;;;;18.17;16.30;;;;;;;8.82;87.52;100391.69;5026881;28;20230;-87
2023/10/18 10:30:43;;;;;;;17.93;16.23;;;;;;;8.89;86.85;100392.47;5023652;28;20209;-87
2023/10/18 10:33:12;;;;;;;18.40;16.47;;;;;;;8.95;86.61;100395.84;5023442;28;20321;-86
2023/10/18 10:35:44;;;;;;;16.43;15.07;;;;;;;8.98;86.10;100402.78;5027243;28;20229;-88
2023/10/18 10:38:18;;;;;;;17.30;15.10;;;;;;;8.99;86.03;100414.91;5026214;28;20250;-89
2023/10/18 10:40:49;;;;;;;18.00;16.13;;;;;;;9.01;85.65;100423.56;5024477;28;20202;-87
2023/10/18 10:43:18;;;;;;;16.33;14.93;;;;;;;9.05;85.50;100420.03;5027792;28;20198;-86
2023/10/18 10:45:54;;;;;;;17.37;15.57;;;;;;;9.13;85.72;100410.38;5028048;28;20268;-87
2023/10/18 10:48:36;;;;;;;16.00;14.50;;;;;;;9.20;85.65;100408.56;5023046;28;20261;-87
2023/10/18 10:51:16;;;;;;;16.27;14.77;;;;;;;9.26;84.99;100418.03;5025919;28;20198;-85
2023/10/18 10:53:48;;;;;;;15.60;14.17;;;;;;;9.34;84.88;100421.38;5028036;28;20213;-86
2023/10/18 10:56:18;;;;;;;15.80;14.47;;;;;;;9.39;83.91;100419.56;5030820;28;20226;-87
2023/10/18 10:59:03;;;;;;;15.20;13.80;;;;;;;9.42;83.53;100442.13;5026268;28;20300;-86
2023/10/18 11:02:06;;;;;;;14.47;13.13;;;;;;;9.47;83.59;100443.75;5026959;28;20223;-87
2023/10/18 11:04:57;;;;;;;14.83;13.43;;;;;;;9.51;83.50;100441.97;5025172;28;20202;-87
2023/10/18 11:07:25;;;;;;;15.50;14.10;;;;;;;9.57;83.06;100447.09;5024569;28;20285;-85
2023/10/18 11:09:59;;;;;;;15.03;13.73;;;;;;;9.61;83.45;100440.09;5026107;28;20194;-86
2023/10/18 11:12:27;;;;;;;15.83;14.53;;;;;;;9.65;82.31;100447.88;5024178;28;20289;-85
2023/10/18 11:14:54;;;;;;;14.23;12.97;;;;;;;9.70;81.53;100463.44;5026064;28;20207;-87
2023/10/18 11:17:23;;;;;;;13.83;12.57;;;;;;;9.70;81.47;100471.25;5028173;28;20239;-89
2023/10/18 11:19:53;;;;;;;14.07;13.00;;;;;;;9.78;81.34;100469.38;5025687;28;20205;-86
2023/10/18 11:22:21;;;;;;;14.77;13.57;;;;;;;9.81;81.20;100471.06;5021249;28;20256;-86
2023/10/18 11:25:06;;;;;;;14.43;13.13;;;;;;;9.83;80.44;100488.44;5026934;28;20214;-88
2023/10/18 11:27:34;;;;;;;14.40;13.23;;;;;;;9.85;82.76;100462.31;5028820;28;20240;-85
2023/10/18 11:30:15;;;;;;;15.60;12.30;;;;;;;9.92;82.56;100441.34;5025316;28;20199;-86
2023/10/18 11:32:43;;;;;;;13.30;12.20;;;;;;;9.98;81.27;100450.81;5035139;28;20212;-88
2023/10/18 11:35:10;;;;;;;14.40;13.27;;;;;;;10.01;80.30;100469.03;5032013;28;20227;-86
2023/10/18 11:37:37;;;;;;;14.07;12.83;;;;;;;10.06;79.91;100475.00;5022614;28;20222;-86
2023/10/18 11:40:15;;;;;;;13.30;12.20;;;;;;;10.09;79.24;100479.34;5024132;28;20252;-86
2023/10/18 11:42:55;;;;;;;16.03;12.40;;;;;;;10.11;79.03;100490.59;5023067;28;20716;-87